Time;durP1;ratioP1;P1;durP2;ratioP2;P2;SDS_P1;SDS_P2;PMS_P1;PMS_P2;Temp;Humidity;BMP_temperature;BMP_pressure;BME280_temperature;BME280_humidity;BME280_pressure;Samples;Min_cycle;Max_cycle;Signal;HPM_P1;HPM_P2
2022/01/04 00:02:21;;;;;;;20.13;7.90;;;;;;;7.05;100.00;100084.53;5052784;28;20025;-75
2022/01/04 00:04:46;;;;;;;21.48;7.60;;;;;;;7.11;100.00;100078.44;5053179;28;20054;-74
2022/01/04 00:07:11;;;;;;;19.52;7.10;;;;;;;7.20;100.00;100072.34;5053050;28;20163;-74
2022/01/04 00:09:40;;;;;;;21.58;7.22;;;;;;;7.22;100.00;100062.72;5052759;28;20078;-75
2022/01/04 00:15:04;;;;;;;19.80;6.88;;;;;;;7.26;100.00;100072.38;5010795;28;20525;-74
2022/01/04 00:17:29;;;;;;;19.27;6.60;;;;;;;7.25;100.00;100052.19;5010369;28;20041;-73
2022/01/04 00:19:55;;;;;;;20.00;6.80;;;;;;;7.19;100.00;100060.94;5010764;28;20425;-74
2022/01/04 00:22:20;;;;;;;19.55;6.90;;;;;;;7.21;100.00;100043.44;5008905;28;20484;-74
2022/01/04 00:24:46;;;;;;;20.63;7.00;;;;;;;7.23;100.00;100038.19;4994007;28;20042;-74
2022/01/04 00:27:11;;;;;;;20.20;6.57;;;;;;;7.25;100.00;100047.84;5011048;28;20029;-74
2022/01/04 00:29:37;;;;;;;19.80;6.43;;;;;;;7.24;100.00;100032.94;5010581;28;20034;-75
2022/01/04 00:32:02;;;;;;;19.20;6.65;;;;;;;7.21;100.00;100019.78;5010768;28;20042;-74
2022/01/04 00:34:28;;;;;;;19.45;6.30;;;;;;;7.21;100.00;100006.63;5006995;28;20026;-74
2022/01/04 00:36:53;;;;;;;20.02;6.85;;;;;;;7.18;100.00;100006.63;5010688;28;20073;-74
2022/01/04 00:39:18;;;;;;;18.95;6.47;;;;;;;7.18;100.00;99995.22;5010979;28;20124;-74
2022/01/04 00:41:44;;;;;;;19.00;6.60;;;;;;;7.16;100.00;99992.56;5010640;28;20485;-74
2022/01/04 00:44:09;;;;;;;19.77;6.88;;;;;;;7.21;100.00;99988.22;4994080;28;20093;-74
2022/01/04 00:46:34;;;;;;;20.02;6.50;;;;;;;7.13;100.00;99992.56;5010884;28;20029;-74
2022/01/04 00:49:11;;;;;;;19.95;6.85;;;;;;;7.08;100.00;99983.78;5010628;28;20094;-74
2022/01/04 00:51:42;;;;;;;20.02;7.28;;;;;;;7.14;100.00;99984.69;5028449;28;20064;-74
2022/01/04 00:54:09;;;;;;;20.17;6.72;;;;;;;7.10;100.00;99977.66;5048751;28;20024;-74
2022/01/04 00:56:35;;;;;;;19.98;7.03;;;;;;;7.17;100.00;99981.19;5056294;28;20491;-74
2022/01/04 00:59:01;;;;;;;21.38;7.15;;;;;;;7.07;100.00;99979.41;5056228;28;20033;-74
2022/01/04 01:01:26;;;;;;;21.33;7.20;;;;;;;7.03;100.00;99975.84;5056133;28;20028;-74
2022/01/04 01:03:52;;;;;;;21.15;7.07;;;;;;;7.08;100.00;99968.03;5056459;28;20494;-74
2022/01/04 01:06:18;;;;;;;21.58;7.50;;;;;;;7.05;100.00;99962.72;5056218;28;20499;-74
2022/01/04 01:08:44;;;;;;;20.55;7.18;;;;;;;7.05;100.00;99974.13;5056210;28;20036;-71
2022/01/04 01:11:10;;;;;;;20.20;7.30;;;;;;;7.07;100.00;99966.25;5056444;28;20033;-71
2022/01/04 01:13:36;;;;;;;22.25;7.53;;;;;;;7.08;100.00;99960.13;5055083;28;20049;-72
2022/01/04 01:16:02;;;;;;;20.52;7.70;;;;;;;7.08;100.00;99961.00;5050336;28;20502;-72
2022/01/04 01:18:27;;;;;;;23.17;8.23;;;;;;;7.03;100.00;99959.22;5056042;28;20029;-71
2022/01/04 01:20:53;;;;;;;21.42;7.30;;;;;;;7.06;100.00;99962.75;5052925;28;20049;-71
2022/01/04 01:23:20;;;;;;;20.50;7.43;;;;;;;7.01;100.00;99956.59;5053198;28;20037;-72
2022/01/04 01:25:45;;;;;;;21.25;8.10;;;;;;;7.02;100.00;99946.94;5055812;28;20048;-71
2022/01/04 01:28:11;;;;;;;21.33;7.63;;;;;;;7.05;100.00;99944.31;5056040;28;20017;-72
2022/01/04 01:30:39;;;;;;;21.33;7.57;;;;;;;7.04;100.00;99938.22;5055849;28;20495;-71
2022/01/04 01:33:05;;;;;;;21.20;7.78;;;;;;;7.00;100.00;99939.06;5055722;28;20044;-72
2022/01/04 01:35:33;;;;;;;21.92;8.00;;;;;;;6.95;100.00;99933.78;5055754;28;20479;-72
2022/01/04 01:37:59;;;;;;;20.55;7.75;;;;;;;6.94;100.00;99939.91;5051971;28;20028;-72
2022/01/04 01:40:25;;;;;;;22.02;8.07;;;;;;;6.98;100.00;99931.16;5055577;28;20383;-70
2022/01/04 01:42:51;;;;;;;21.20;8.10;;;;;;;6.90;100.00;99927.66;5055474;28;20025;-71
2022/01/04 01:45:17;;;;;;;22.17;8.10;;;;;;;6.95;100.00;99925.03;5055539;28;20028;-72
2022/01/04 01:47:43;;;;;;;21.67;8.10;;;;;;;6.92;100.00;99923.25;5055586;28;20025;-71
2022/01/04 01:50:11;;;;;;;21.77;8.43;;;;;;;6.93;100.00;99917.16;5055536;28;20043;-72
2022/01/04 01:52:38;;;;;;;21.35;8.15;;;;;;;6.96;100.00;99922.41;5055566;28;20028;-71
2022/01/04 01:55:04;;;;;;;21.77;8.43;;;;;;;6.90;100.00;99914.50;5055361;28;20036;-71
2022/01/04 01:57:30;;;;;;;22.45;9.18;;;;;;;6.86;100.00;99903.97;5051215;28;20479;-72
2022/01/04 01:59:56;;;;;;;23.00;8.32;;;;;;;6.92;100.00;99914.53;5055334;28;20102;-72
2022/01/04 02:02:21;;;;;;;22.63;9.15;;;;;;;6.93;100.00;99913.63;5055128;28;20094;-71
2022/01/04 02:04:46;;;;;;;21.33;8.70;;;;;;;6.91;100.00;99912.75;5055201;28;20460;-70
2022/01/04 02:07:12;;;;;;;23.05;9.38;;;;;;;6.85;100.00;99905.72;5055211;28;20467;-71
2022/01/04 02:09:41;;;;;;;24.73;10.02;;;;;;;6.86;100.00;99894.34;5054968;28;20025;-71
2022/01/04 02:12:08;;;;;;;23.05;9.02;;;;;;;6.86;100.00;99899.59;5055289;28;20444;-72
2022/01/04 02:14:33;;;;;;;23.77;10.15;;;;;;;6.88;100.00;99891.72;5055007;28;20025;-71
2022/01/04 02:16:58;;;;;;;23.60;9.00;;;;;;;6.84;100.00;99879.44;5054842;28;20051;-71
2022/01/04 02:19:24;;;;;;;23.35;9.40;;;;;;;6.89;100.00;99875.97;5054737;28;20411;-71
2022/01/04 02:21:50;;;;;;;23.30;8.48;;;;;;;6.79;100.00;99871.53;5055257;28;20083;-71
2022/01/04 02:24:15;;;;;;;21.90;9.32;;;;;;;6.74;100.00;99873.25;5054865;28;20029;-71
2022/01/04 02:26:41;;;;;;;22.60;8.82;;;;;;;6.81;100.00;99867.16;5054717;28;20032;-74
2022/01/04 02:29:07;;;;;;;23.23;9.15;;;;;;;6.75;100.00;99861.88;5054841;28;20426;-74
2022/01/04 02:31:34;;;;;;;23.38;9.02;;;;;;;6.73;100.00;99854.00;5054608;28;20025;-74
2022/01/04 02:33:59;;;;;;;23.40;9.05;;;;;;;6.78;100.00;99857.50;5054947;28;20033;-74
2022/01/04 02:36:24;;;;;;;22.88;9.25;;;;;;;6.79;100.00;99866.28;5054633;28;20521;-74
2022/01/04 02:38:53;;;;;;;22.58;9.63;;;;;;;6.76;100.00;99858.41;5054528;28;20029;-74
2022/01/04 02:41:19;;;;;;;24.15;9.65;;;;;;;6.77;100.00;99860.13;5054453;28;20463;-74
2022/01/04 02:43:44;;;;;;;25.63;9.85;;;;;;;6.74;100.00;99857.50;5054592;28;20024;-74
2022/01/04 02:46:10;;;;;;;23.15;8.85;;;;;;;6.73;100.00;99851.38;5054235;28;20029;-74
2022/01/04 02:48:44;;;;;;;23.75;9.10;;;;;;;6.84;100.00;99842.66;5054718;28;20043;-74
2022/01/04 02:51:11;;;;;;;25.63;9.52;;;;;;;6.75;100.00;99839.13;5054677;28;20036;-74
2022/01/04 02:53:36;;;;;;;23.88;9.02;;;;;;;6.77;100.00;99832.13;5054187;28;20054;-73
2022/01/04 02:56:02;;;;;;;24.23;9.18;;;;;;;6.78;100.00;99827.75;5054156;28;20108;-74
2022/01/04 02:58:27;;;;;;;24.70;9.73;;;;;;;6.77;100.00;99823.34;5054348;28;20032;-74
2022/01/04 03:00:52;;;;;;;24.05;9.68;;;;;;;6.72;100.00;99812.84;5054062;28;20040;-74
2022/01/04 03:03:18;;;;;;;23.92;9.20;;;;;;;6.72;100.00;99822.47;5052718;28;20040;-74
2022/01/04 03:05:43;;;;;;;23.20;8.80;;;;;;;6.72;100.00;99822.47;5054216;28;20020;-74
2022/01/04 03:08:08;;;;;;;23.42;8.88;;;;;;;6.82;100.00;99812.91;5053979;28;20025;-74
2022/01/04 03:10:35;;;;;;;22.50;8.63;;;;;;;6.77;100.00;99804.97;5054162;28;20117;-71
2022/01/04 03:13:02;;;;;;;22.80;8.95;;;;;;;6.72;100.00;99801.47;5043007;28;20033;-71
2022/01/04 03:15:28;;;;;;;22.10;8.80;;;;;;;6.68;100.00;99792.69;5052456;28;20417;-72
2022/01/04 03:17:53;;;;;;;22.08;8.55;;;;;;;6.63;100.00;99792.66;5053406;28;20028;-72
2022/01/04 03:20:19;;;;;;;21.40;7.88;;;;;;;6.70;100.00;99796.22;5053532;28;20049;-72
2022/01/04 03:22:44;;;;;;;22.00;7.78;;;;;;;6.73;100.00;99782.22;5053988;28;20025;-72
2022/01/04 03:25:09;;;;;;;22.17;8.10;;;;;;;6.71;100.00;99773.44;5053945;28;20078;-72
2022/01/04 03:27:35;;;;;;;21.70;7.82;;;;;;;6.66;100.00;99769.94;5053606;28;20422;-71
2022/01/04 03:30:01;;;;;;;22.83;8.15;;;;;;;6.67;100.00;99766.41;5053320;28;20429;-70
2022/01/04 03:32:26;;;;;;;22.17;7.93;;;;;;;6.67;100.00;99756.81;5053723;28;20036;-71
2022/01/04 03:34:51;;;;;;;23.23;8.50;;;;;;;6.61;100.00;99755.03;5053413;28;20083;-71
2022/01/04 03:37:17;;;;;;;22.05;8.00;;;;;;;6.62;100.00;99735.75;5053327;28;20079;-71
2022/01/04 03:39:42;;;;;;;22.30;8.30;;;;;;;6.69;100.00;99746.31;5053640;28;20113;-72
2022/01/04 03:42:07;;;;;;;21.52;7.95;;;;;;;6.67;100.00;99729.66;5051907;28;20021;-71
2022/01/04 03:44:33;;;;;;;22.58;8.57;;;;;;;6.62;100.00;99733.13;5053277;28;20494;-71
2022/01/04 03:46:58;;;;;;;22.15;8.73;;;;;;;6.66;100.00;99717.41;5053223;28;20482;-71
2022/01/04 03:49:24;;;;;;;23.25;8.68;;;;;;;6.61;100.00;99709.50;5053142;28;20021;-71
2022/01/04 03:51:50;;;;;;;23.90;9.00;;;;;;;6.59;100.00;99701.63;5053313;28;20035;-71
2022/01/04 03:54:15;;;;;;;23.60;9.07;;;;;;;6.56;100.00;99708.63;5052992;28;20025;-71
2022/01/04 03:56:41;;;;;;;22.50;8.98;;;;;;;6.51;100.00;99702.47;5051732;28;20075;-72
2022/01/04 03:59:06;;;;;;;23.23;9.15;;;;;;;6.53;100.00;99701.59;5053216;28;20052;-74
2022/01/04 04:01:31;;;;;;;22.83;9.10;;;;;;;6.47;100.00;99684.97;5052893;28;20025;-74
2022/01/04 04:03:57;;;;;;;22.90;9.50;;;;;;;6.55;100.00;99698.97;5052897;28;20033;-74
2022/01/04 04:06:22;;;;;;;23.10;9.13;;;;;;;6.61;100.00;99684.13;5049668;28;20045;-75
2022/01/04 04:08:48;;;;;;;24.40;9.18;;;;;;;6.53;100.00;99677.97;5046205;28;20017;-74
2022/01/04 04:11:14;;;;;;;22.75;9.05;;;;;;;6.57;100.00;99681.50;5052891;28;20017;-74
2022/01/04 04:13:39;;;;;;;23.85;9.27;;;;;;;6.54;100.00;99679.75;5052956;28;20025;-74
2022/01/04 04:16:05;;;;;;;24.33;10.05;;;;;;;6.52;100.00;99668.34;5052667;28;20025;-74
2022/01/04 04:18:30;;;;;;;25.77;10.57;;;;;;;6.53;100.00;99664.84;5052479;28;20060;-74
2022/01/04 04:20:55;;;;;;;24.35;10.43;;;;;;;6.54;100.00;99660.47;5052763;28;20041;-74
2022/01/04 04:23:21;;;;;;;25.08;10.43;;;;;;;6.56;100.00;99659.59;5052696;28;20104;-74
2022/01/04 04:25:46;;;;;;;26.42;10.85;;;;;;;6.55;100.00;99652.63;5052701;28;20154;-74
2022/01/04 04:28:12;;;;;;;24.88;10.43;;;;;;;6.57;100.00;99644.75;5052850;28;20115;-74
2022/01/04 04:30:37;;;;;;;24.52;10.38;;;;;;;6.52;100.00;99646.47;5051658;28;20521;-74
2022/01/04 04:33:03;;;;;;;24.42;10.90;;;;;;;6.54;100.00;99649.97;5052632;28;20044;-74
2022/01/04 04:35:30;;;;;;;26.50;11.40;;;;;;;6.49;100.00;99649.97;5052432;28;20471;-74
2022/01/04 04:37:57;;;;;;;24.70;10.43;;;;;;;6.49;100.00;99660.47;5052309;28;20032;-74
2022/01/04 04:40:22;;;;;;;25.40;11.10;;;;;;;6.53;100.00;99642.97;5051882;28;20036;-74
2022/01/04 04:42:47;;;;;;;26.23;10.75;;;;;;;6.55;100.00;99647.38;5043131;28;20026;-75
2022/01/04 04:45:12;;;;;;;26.00;10.85;;;;;;;6.50;100.00;99646.47;5052393;28;20031;-74
2022/01/04 04:47:38;;;;;;;25.92;11.13;;;;;;;6.55;100.00;99646.47;5052671;28;20018;-74
2022/01/04 04:50:04;;;;;;;24.98;10.82;;;;;;;6.47;100.00;99642.97;5052193;28;20025;-74
2022/01/04 04:52:29;;;;;;;25.88;11.50;;;;;;;6.47;100.00;99643.84;5052429;28;20057;-74
2022/01/04 04:54:55;;;;;;;25.05;10.88;;;;;;;6.47;100.00;99643.84;5052540;28;20033;-75
2022/01/04 04:57:20;;;;;;;24.98;11.27;;;;;;;6.46;100.00;99642.06;5052160;28;20029;-74
2022/01/04 04:59:46;;;;;;;26.13;12.10;;;;;;;6.45;100.00;99642.94;5052274;28;20017;-74
2022/01/04 05:02:11;;;;;;;25.13;10.75;;;;;;;6.50;100.00;99641.22;5052416;28;20025;-75
2022/01/04 05:04:37;;;;;;;27.13;11.98;;;;;;;6.49;100.00;99646.47;5052161;28;20048;-73
2022/01/04 05:07:03;;;;;;;26.38;11.70;;;;;;;6.47;100.00;99635.97;5052205;28;20107;-74
2022/01/04 05:09:28;;;;;;;26.10;11.88;;;;;;;6.46;100.00;99644.69;5052524;28;20456;-74
2022/01/04 05:11:54;;;;;;;27.30;12.77;;;;;;;6.43;100.00;99640.31;5052188;28;20029;-75
2022/01/04 05:14:20;;;;;;;27.50;12.82;;;;;;;6.49;100.00;99635.97;5052421;28;20025;-75
2022/01/04 05:16:45;;;;;;;27.33;11.85;;;;;;;6.45;100.00;99635.06;5052059;28;20149;-73
2022/01/04 05:19:10;;;;;;;28.80;12.07;;;;;;;6.45;100.00;99625.47;5052135;28;20090;-74
2022/01/04 05:21:36;;;;;;;28.63;12.98;;;;;;;6.48;100.00;99624.59;5052144;28;20543;-75
2022/01/04 05:24:02;;;;;;;28.25;12.77;;;;;;;6.47;100.00;99621.97;5052061;28;20025;-75
2022/01/04 05:26:27;;;;;;;28.92;13.25;;;;;;;6.52;100.00;99618.44;5048000;28;20083;-74
2022/01/04 05:28:52;;;;;;;30.15;12.75;;;;;;;6.43;100.00;99615.81;5052515;28;20452;-73
2022/01/04 05:31:18;;;;;;;29.42;13.90;;;;;;;6.28;100.00;99619.31;5052201;28;20025;-74
2022/01/04 05:33:43;;;;;;;28.38;13.40;;;;;;;6.21;100.00;99613.16;5052014;28;20025;-75
2022/01/04 05:36:09;;;;;;;31.17;14.05;;;;;;;6.16;100.00;99607.03;5051952;28;20025;-74
2022/01/04 05:38:34;;;;;;;31.17;14.98;;;;;;;6.06;100.00;99595.63;5051981;28;20036;-73
2022/01/04 05:41:00;;;;;;;30.70;15.43;;;;;;;6.10;100.00;99591.25;5053336;28;20048;-74
2022/01/04 05:43:25;;;;;;;30.70;14.23;;;;;;;6.02;100.00;99583.38;5055721;28;20017;-74
2022/01/04 05:45:51;;;;;;;30.77;15.05;;;;;;;6.00;100.00;99589.47;5055792;28;20489;-75
2022/01/04 05:48:20;;;;;;;32.72;15.27;;;;;;;5.92;100.00;99590.28;5055399;28;20036;-74
2022/01/04 05:50:45;;;;;;;31.65;16.15;;;;;;;5.87;100.00;99581.53;5055896;28;20151;-74
2022/01/04 05:53:11;;;;;;;34.60;16.45;;;;;;;5.87;100.00;99584.16;5055276;28;20452;-74
2022/01/04 05:55:36;;;;;;;33.70;15.73;;;;;;;5.89;100.00;99581.53;5055423;28;20048;-74
2022/01/04 05:58:02;;;;;;;33.35;16.33;;;;;;;5.90;100.00;99583.31;5054826;28;20025;-74
2022/01/04 06:00:27;;;;;;;32.58;16.38;;;;;;;5.88;100.00;99588.56;5046134;28;20029;-74
2022/01/04 06:02:53;;;;;;;31.45;15.98;;;;;;;5.88;100.00;99574.53;5055348;28;20036;-74
2022/01/04 06:05:18;;;;;;;33.78;16.85;;;;;;;5.86;100.00;99578.91;5055449;28;20460;-74
2022/01/04 06:07:44;;;;;;;35.03;17.40;;;;;;;5.83;100.00;99581.53;5054898;28;20052;-74
2022/01/04 06:10:11;;;;;;;33.22;17.48;;;;;;;5.87;100.00;99578.06;5055466;28;20021;-74
2022/01/04 06:15:10;;;;;;;34.92;17.48;;;;;;;5.84;100.00;99573.66;5055312;28;20043;-74
2022/01/04 06:17:39;;;;;;;33.40;17.20;;;;;;;5.87;100.00;99576.28;5054891;28;20474;-74
2022/01/04 06:20:06;;;;;;;34.53;17.23;;;;;;;5.87;100.00;99573.69;5054707;28;20045;-74
2022/01/04 06:22:32;;;;;;;33.17;17.30;;;;;;;5.87;100.00;99568.44;5054751;28;20126;-74
2022/01/04 06:24:58;;;;;;;34.60;17.92;;;;;;;5.86;100.00;99555.31;5055041;28;20033;-74
2022/01/04 06:27:23;;;;;;;35.42;18.27;;;;;;;5.85;100.00;99549.16;5054955;28;20059;-75
2022/01/04 06:29:49;;;;;;;36.55;18.73;;;;;;;5.86;100.00;99552.69;5054852;28;20083;-74
2022/01/04 06:32:16;;;;;;;34.85;17.73;;;;;;;5.86;100.00;99563.19;5054779;28;20371;-74
2022/01/04 06:34:42;;;;;;;36.38;19.20;;;;;;;5.87;100.00;99567.56;5054635;28;20021;-74
2022/01/04 06:37:09;;;;;;;35.28;18.30;;;;;;;5.87;100.00;99573.69;5050314;28;20083;-74
2022/01/04 06:39:35;;;;;;;37.15;18.35;;;;;;;5.83;100.00;99556.16;5054706;28;20090;-74
2022/01/04 06:42:00;;;;;;;36.05;18.77;;;;;;;5.82;100.00;99548.31;5051654;28;20410;-75
2022/01/04 06:44:26;;;;;;;36.58;18.77;;;;;;;5.82;100.00;99570.16;5052816;28;20040;-73
2022/01/04 06:46:52;;;;;;;37.05;19.88;;;;;;;5.83;100.00;99566.66;5053227;28;20066;-74
2022/01/04 06:49:19;;;;;;;36.45;18.52;;;;;;;5.87;100.00;99546.59;5053086;28;20103;-74
2022/01/04 06:51:46;;;;;;;35.13;18.80;;;;;;;5.85;100.00;99541.31;5051930;28;20024;-74
2022/01/04 06:54:13;;;;;;;37.78;20.17;;;;;;;5.83;100.00;99537.81;5052724;28;20025;-72
2022/01/04 06:56:39;;;;;;;36.80;19.20;;;;;;;5.84;100.00;99534.31;5052718;28;20537;-73
2022/01/04 06:59:06;;;;;;;35.33;19.45;;;;;;;5.81;100.00;99534.31;5051901;28;20028;-71
2022/01/04 07:01:33;;;;;;;36.05;18.58;;;;;;;5.80;100.00;99527.31;5052641;28;20471;-72
2022/01/04 07:03:59;;;;;;;35.92;18.85;;;;;;;5.80;100.00;99531.69;5052376;28;20532;-72
2022/01/04 07:06:24;;;;;;;36.38;19.00;;;;;;;5.80;100.00;99535.19;5050838;28;20009;-73
2022/01/04 07:08:50;;;;;;;36.83;19.67;;;;;;;5.79;100.00;99528.19;5052118;28;20094;-72
2022/01/04 07:11:16;;;;;;;38.90;19.58;;;;;;;5.80;100.00;99522.06;5051597;28;20040;-72
2022/01/04 07:13:41;;;;;;;37.08;19.38;;;;;;;5.80;100.00;99508.97;5052598;28;20036;-73
2022/01/04 07:16:07;;;;;;;37.58;19.38;;;;;;;5.85;100.00;99498.47;5052320;28;20076;-71
2022/01/04 07:18:32;;;;;;;40.53;20.65;;;;;;;5.80;100.00;99514.19;5052300;28;20028;-73
2022/01/04 07:20:58;;;;;;;37.05;19.30;;;;;;;5.76;100.00;99513.31;5051727;28;20492;-72
2022/01/04 07:23:23;;;;;;;38.65;20.33;;;;;;;5.76;100.00;99512.44;5052330;28;20107;-72
2022/01/04 07:25:49;;;;;;;39.35;20.02;;;;;;;5.75;100.00;99508.06;5052329;28;20062;-74
2022/01/04 07:28:14;;;;;;;41.13;21.65;;;;;;;5.79;100.00;99511.56;5051982;28;20411;-73
2022/01/04 07:30:40;;;;;;;38.28;19.60;;;;;;;5.75;100.00;99494.94;5051946;28;20052;-73
2022/01/04 07:33:06;;;;;;;38.90;19.80;;;;;;;5.80;100.00;99497.59;5050663;28;20553;-71
2022/01/04 07:35:31;;;;;;;41.03;20.98;;;;;;;5.76;100.00;99475.72;5052291;28;20024;-72
2022/01/04 07:37:56;;;;;;;40.15;20.08;;;;;;;5.77;100.00;99472.25;5051857;28;20120;-75
2022/01/04 07:40:22;;;;;;;41.50;20.38;;;;;;;5.77;100.00;99472.25;5048478;28;20028;-74
2022/01/04 07:42:48;;;;;;;42.00;21.90;;;;;;;5.78;100.00;99470.47;5051323;28;20074;-74
2022/01/04 07:45:14;;;;;;;42.92;21.27;;;;;;;5.76;100.00;99475.72;5052061;28;20032;-74
2022/01/04 07:47:43;;;;;;;41.08;21.90;;;;;;;5.77;100.00;99461.75;5051572;28;20036;-74
2022/01/04 07:50:10;;;;;;;40.63;21.02;;;;;;;5.76;100.00;99480.97;5051412;28;20027;-75
2022/01/04 07:52:35;;;;;;;40.70;21.73;;;;;;;5.75;100.00;99487.97;5051452;28;20033;-74
2022/01/04 07:55:02;;;;;;;44.05;22.80;;;;;;;5.74;100.00;99494.06;5052002;28;20082;-74
2022/01/04 07:57:27;;;;;;;42.88;22.00;;;;;;;5.74;100.00;99487.97;5051864;28;20033;-74
2022/01/04 07:59:53;;;;;;;43.05;22.52;;;;;;;5.75;100.00;99505.44;5048202;28;20028;-74
2022/01/04 08:02:18;;;;;;;42.78;22.63;;;;;;;5.74;100.00;99501.09;5048927;28;20484;-74
2022/01/04 08:04:43;;;;;;;43.30;21.88;;;;;;;5.78;100.00;99499.31;5049315;28;20060;-74
2022/01/04 08:07:09;;;;;;;42.72;21.30;;;;;;;5.80;100.00;99493.22;5051024;28;20112;-74
2022/01/04 08:09:34;;;;;;;43.90;22.75;;;;;;;5.81;100.00;99489.75;5050935;28;20028;-74
2022/01/04 08:12:00;;;;;;;42.47;21.52;;;;;;;5.83;100.00;99487.97;5051365;28;20108;-77
2022/01/04 08:14:25;;;;;;;43.55;22.08;;;;;;;5.81;100.00;99486.22;5050522;28;20733;-74
2022/01/04 08:16:51;;;;;;;41.25;20.75;;;;;;;5.81;100.00;99487.13;5049835;28;20074;-74
2022/01/04 08:19:16;;;;;;;42.60;22.30;;;;;;;5.85;100.00;99495.84;5050451;28;20028;-73
2022/01/04 08:21:42;;;;;;;41.92;21.45;;;;;;;5.88;100.00;99490.59;5049547;28;20484;-74
2022/01/04 08:24:07;;;;;;;43.17;21.70;;;;;;;5.87;100.00;99504.63;5050823;28;20083;-74
2022/01/04 08:26:33;;;;;;;42.65;22.42;;;;;;;5.87;100.00;99494.97;5051375;28;20080;-75
2022/01/04 08:28:58;;;;;;;42.83;22.05;;;;;;;5.85;100.00;99496.72;5050994;28;20070;-72
2022/01/04 08:31:23;;;;;;;43.97;22.15;;;;;;;5.91;100.00;99488.88;5051253;28;20063;-73
2022/01/04 08:33:49;;;;;;;43.17;23.38;;;;;;;5.89;100.00;99497.59;5051009;28;20391;-73
2022/01/04 08:36:15;;;;;;;45.60;24.52;;;;;;;5.90;100.00;99495.00;5050892;28;20036;-73
2022/01/04 08:38:40;;;;;;;45.28;23.70;;;;;;;5.89;100.00;99503.72;5050075;28;20037;-74
2022/01/04 08:41:05;;;;;;;43.92;23.60;;;;;;;5.90;100.00;99505.47;5050169;28;20033;-74
2022/01/04 08:43:31;;;;;;;43.50;23.02;;;;;;;5.91;100.00;99512.50;5051346;28;20065;-74
2022/01/04 08:45:56;;;;;;;42.22;22.98;;;;;;;5.91;100.00;99532.56;5050995;28;20021;-74
2022/01/04 08:48:22;;;;;;;41.53;21.98;;;;;;;5.90;100.00;99526.47;5051336;28;20053;-74
2022/01/04 08:50:48;;;;;;;43.80;23.05;;;;;;;5.89;100.00;99529.94;5050715;28;20017;-74
2022/01/04 08:53:14;;;;;;;42.72;21.75;;;;;;;5.91;100.00;99528.22;5051006;28;20025;-74
2022/01/04 08:55:40;;;;;;;42.92;22.58;;;;;;;5.93;100.00;99534.34;5051285;28;20036;-75
2022/01/04 08:58:06;;;;;;;43.40;21.48;;;;;;;5.96;100.00;99537.84;5050876;28;20040;-74
2022/01/04 09:00:32;;;;;;;45.25;24.05;;;;;;;5.94;100.00;99540.44;5050910;28;20021;-75
2022/01/04 09:02:59;;;;;;;45.55;23.30;;;;;;;5.98;100.00;99528.25;5050702;28;20048;-75
2022/01/04 09:05:25;;;;;;;42.45;21.65;;;;;;;5.99;100.00;99527.41;5051152;28;20372;-74
2022/01/04 09:07:50;;;;;;;43.80;21.70;;;;;;;6.03;100.00;99509.03;5052364;28;20025;-75
2022/01/04 09:10:16;;;;;;;43.50;22.88;;;;;;;6.02;100.00;99512.53;5052285;28;20059;-75
2022/01/04 09:15:29;;;;;;;41.80;22.02;;;;;;;6.02;100.00;99512.53;5052692;28;20103;-75
2022/01/04 09:20:38;;;;;;;43.63;23.33;;;;;;;6.06;100.00;99505.56;5052462;28;20524;-75
2022/01/04 09:23:03;;;;;;;46.17;23.92;;;;;;;6.06;100.00;99505.56;5055797;28;20029;-75
2022/01/04 09:25:28;;;;;;;42.85;22.80;;;;;;;6.07;100.00;99502.03;5056139;28;20029;-75
2022/01/04 09:27:54;;;;;;;44.63;23.92;;;;;;;6.09;100.00;99518.66;5056051;28;20029;-75
2022/01/04 09:30:20;;;;;;;43.97;23.95;;;;;;;6.10;100.00;99529.16;5056094;28;20076;-74
2022/01/04 09:32:46;;;;;;;45.92;24.63;;;;;;;6.14;100.00;99530.03;5056021;28;20053;-75
2022/01/04 09:35:12;;;;;;;46.22;24.17;;;;;;;6.14;100.00;99542.28;5056021;28;20043;-75
2022/01/04 09:37:38;;;;;;;45.25;24.92;;;;;;;6.16;100.00;99543.16;5055543;28;20036;-75
2022/01/04 09:40:05;;;;;;;46.03;25.73;;;;;;;6.15;100.00;99542.28;5055802;28;20082;-75
2022/01/04 09:42:31;;;;;;;46.58;25.02;;;;;;;6.16;100.00;99536.19;5055592;28;20111;-75
2022/01/04 09:44:56;;;;;;;47.42;26.83;;;;;;;6.20;100.00;99529.16;5052215;28;20033;-75
2022/01/04 09:47:22;;;;;;;45.50;25.88;;;;;;;6.19;100.00;99528.31;5051237;28;20032;-75
2022/01/04 09:49:47;;;;;;;46.15;24.95;;;;;;;6.19;100.00;99538.81;5051413;28;20083;-74
2022/01/04 09:52:15;;;;;;;46.28;25.15;;;;;;;6.20;100.00;99535.28;5053392;28;20424;-73
2022/01/04 09:54:41;;;;;;;47.78;25.58;;;;;;;6.22;100.00;99530.06;5052820;28;20033;-76
2022/01/04 09:57:06;;;;;;;49.10;26.90;;;;;;;6.25;100.00;99527.44;5053331;28;20536;-75
2022/01/04 09:59:32;;;;;;;49.22;25.80;;;;;;;6.25;100.00;99512.56;5053474;28;20021;-73
2022/01/04 10:02:11;;;;;;;47.17;27.38;;;;;;;6.26;100.00;99523.91;5053567;28;20053;-73
2022/01/04 10:04:37;;;;;;;48.08;27.30;;;;;;;6.30;100.00;99524.81;5052131;28;20498;-74
2022/01/04 10:07:05;;;;;;;49.20;28.35;;;;;;;6.30;100.00;99522.19;5053652;28;20025;-73
2022/01/04 10:09:45;;;;;;;52.10;28.38;;;;;;;6.35;100.00;99523.94;5053977;28;20021;-74
2022/01/04 10:12:14;;;;;;;49.83;28.17;;;;;;;6.39;100.00;99515.19;5052956;28;20035;-74
2022/01/04 10:14:44;;;;;;;49.60;28.52;;;;;;;6.43;100.00;99509.06;5052542;28;20029;-74
2022/01/04 10:17:28;;;;;;;48.88;28.67;;;;;;;6.47;100.00;99502.06;5053333;28;20033;-74
2022/01/04 10:19:55;;;;;;;47.90;29.00;;;;;;;6.53;100.00;99488.94;5053376;28;20060;-74
2022/01/04 10:22:25;;;;;;;50.97;29.27;;;;;;;6.57;100.00;99495.06;5050536;28;20487;-74
2022/01/04 10:25:15;;;;;;;49.58;28.92;;;;;;;6.62;100.00;99495.91;5050713;28;20487;-74
2022/01/04 10:27:50;;;;;;;49.35;27.90;;;;;;;6.60;100.00;99503.81;5050554;28;20113;-73
2022/01/04 10:30:31;;;;;;;49.05;28.50;;;;;;;6.63;100.00;99500.31;5053365;28;20021;-74
2022/01/04 10:32:59;;;;;;;49.55;29.27;;;;;;;6.63;100.00;99493.28;5053089;28;20020;-73
2022/01/04 10:35:42;;;;;;;55.00;29.27;;;;;;;6.69;100.00;99499.44;5052953;28;20032;-73
2022/01/04 10:38:12;;;;;;;49.72;28.42;;;;;;;6.69;100.00;99487.16;5052238;28;20040;-73
2022/01/04 10:40:39;;;;;;;48.63;28.30;;;;;;;6.71;100.00;99485.41;5053232;28;20460;-73
2022/01/04 10:43:14;;;;;;;49.55;29.00;;;;;;;6.74;100.00;99495.03;5053327;28;20592;-73
2022/01/04 10:45:42;;;;;;;49.80;28.98;;;;;;;6.74;100.00;99495.03;5054571;28;20426;-73
2022/01/04 10:48:12;;;;;;;49.28;29.15;;;;;;;6.76;100.00;99493.28;5054392;28;20025;-73
2022/01/04 10:50:39;;;;;;;47.78;28.45;;;;;;;6.80;100.00;99487.13;5054432;28;20023;-75
2022/01/04 10:53:05;;;;;;;45.67;26.55;;;;;;;6.81;100.00;99481.00;5054195;28;20025;-73
2022/01/04 10:55:35;;;;;;;49.13;28.60;;;;;;;6.85;100.00;99488.00;5054157;28;20048;-73
2022/01/04 10:58:02;;;;;;;46.65;27.85;;;;;;;6.83;100.00;99487.16;5054487;28;20394;-74
2022/01/04 11:00:28;;;;;;;47.85;28.15;;;;;;;6.87;100.00;99488.88;5054208;28;20109;-74
2022/01/04 11:02:54;;;;;;;51.53;29.73;;;;;;;6.88;100.00;99487.13;5054125;28;20099;-73
2022/01/04 11:05:21;;;;;;;46.65;27.38;;;;;;;6.91;100.00;99482.72;5054268;28;20288;-74
2022/01/04 11:08:01;;;;;;;49.92;29.80;;;;;;;6.92;100.00;99489.75;5054017;28;20025;-74
2022/01/04 11:10:28;;;;;;;47.88;28.98;;;;;;;6.93;100.00;99481.00;5051072;28;20082;-73
2022/01/04 11:12:56;;;;;;;48.63;29.20;;;;;;;6.96;100.00;99475.72;5053912;28;20066;-74
2022/01/04 11:15:21;;;;;;;47.85;30.52;;;;;;;7.00;100.00;99473.94;5054020;28;20021;-73
2022/01/04 11:17:47;;;;;;;50.10;28.55;;;;;;;6.99;100.00;99466.97;5053930;28;20029;-75
2022/01/04 11:20:12;;;;;;;49.25;29.58;;;;;;;7.02;100.00;99461.69;5046452;28;20121;-73
2022/01/04 11:22:40;;;;;;;47.80;28.40;;;;;;;7.06;100.00;99473.06;5051919;28;20491;-74
2022/01/04 11:25:07;;;;;;;50.05;29.45;;;;;;;7.13;100.00;99478.28;5051998;28;20110;-75
2022/01/04 11:27:35;;;;;;;48.28;29.90;;;;;;;7.17;100.00;99486.19;5052160;28;20029;-76